createdAt,value
2017-09-30T00:02:22.985Z,17.00
2017-09-30T00:04:51.277Z,17.00
2017-09-30T00:07:19.557Z,17.10
2017-09-30T00:09:47.811Z,17.00
2017-09-30T00:12:16.134Z,16.90
2017-09-30T00:14:45.179Z,16.80
2017-09-30T00:17:13.430Z,16.80
2017-09-30T00:19:41.686Z,16.80
2017-09-30T00:22:10.310Z,16.80
2017-09-30T00:24:38.561Z,16.70
2017-09-30T00:27:06.817Z,16.70
2017-09-30T00:29:35.857Z,16.60
2017-09-30T00:32:04.106Z,16.60
2017-09-30T00:34:32.362Z,16.60
2017-09-30T00:37:01.401Z,16.50
2017-09-30T00:39:29.654Z,16.50
2017-09-30T00:41:57.910Z,16.50
2017-09-30T00:44:27.257Z,16.50
2017-09-30T00:46:55.906Z,16.50
2017-09-30T00:49:24.917Z,16.50
2017-09-30T00:51:53.193Z,16.40
2017-09-30T00:54:21.441Z,16.40
2017-09-30T00:56:50.464Z,16.50
2017-09-30T00:59:18.732Z,16.50
2017-09-30T01:01:46.998Z,16.40
2017-09-30T01:04:15.246Z,16.50
2017-09-30T01:06:43.897Z,16.30
2017-09-30T01:09:12.158Z,16.20
2017-09-30T01:11:40.410Z,16.10
2017-09-30T01:14:08.689Z,16.00
2017-09-30T01:16:37.805Z,15.90
2017-09-30T01:19:06.961Z,15.90
2017-09-30T01:21:35.363Z,15.80
2017-09-30T01:24:04.381Z,15.70
2017-09-30T01:26:32.629Z,15.70
2017-09-30T01:29:02.084Z,15.70
2017-09-30T01:31:30.381Z,15.60
2017-09-30T01:33:58.635Z,15.70
2017-09-30T01:36:27.001Z,15.70
2017-09-30T01:38:55.276Z,15.70
2017-09-30T01:41:23.530Z,15.70
2017-09-30T01:43:51.805Z,15.70
2017-09-30T01:46:20.054Z,15.70
2017-09-30T01:48:48.922Z,15.70
2017-09-30T01:51:17.486Z,15.70
2017-09-30T01:53:45.933Z,15.80
2017-09-30T01:56:14.946Z,15.90
2017-09-30T01:58:43.225Z,15.90
2017-09-30T02:01:16.078Z,16.00
2017-09-30T02:03:45.166Z,16.00
2017-09-30T02:06:14.198Z,16.00
2017-09-30T02:08:42.453Z,16.00
2017-09-30T02:11:11.286Z,16.00
2017-09-30T02:13:39.549Z,16.00
2017-09-30T02:16:07.813Z,16.00
2017-09-30T02:18:36.099Z,16.00
2017-09-30T02:21:04.354Z,16.00
2017-09-30T02:23:32.623Z,16.00
2017-09-30T02:26:00.890Z,15.90
2017-09-30T02:28:29.918Z,15.80
2017-09-30T02:30:58.245Z,15.80
2017-09-30T02:33:26.589Z,15.80
2017-09-30T02:35:54.847Z,15.80
2017-09-30T02:38:23.131Z,15.80
2017-09-30T02:40:51.411Z,15.80
2017-09-30T02:43:19.673Z,15.80
2017-09-30T02:45:47.921Z,15.80
2017-09-30T02:48:16.966Z,15.90
2017-09-30T02:50:45.262Z,15.90
2017-09-30T02:53:13.510Z,15.90
2017-09-30T02:55:42.094Z,15.90
2017-09-30T02:58:10.341Z,15.90
2017-09-30T03:00:38.600Z,16.00
2017-09-30T03:03:06.886Z,15.90
2017-09-30T03:05:35.897Z,15.90
2017-09-30T03:08:04.158Z,15.90
2017-09-30T03:10:33.199Z,15.80
2017-09-30T03:13:01.449Z,15.80
2017-09-30T03:15:29.701Z,15.80
2017-09-30T03:17:58.797Z,15.80
2017-09-30T03:20:27.819Z,15.80
2017-09-30T03:22:56.078Z,15.80
2017-09-30T03:25:24.349Z,15.80
2017-09-30T03:27:52.603Z,15.90
2017-09-30T03:30:20.849Z,15.90
2017-09-30T03:32:49.121Z,15.80
2017-09-30T03:35:17.378Z,15.80
2017-09-30T03:37:45.640Z,15.80
2017-09-30T03:40:14.463Z,15.80
2017-09-30T03:42:42.722Z,15.70
2017-09-30T03:45:10.977Z,15.70
2017-09-30T03:47:40.110Z,15.70
2017-09-30T03:50:08.590Z,15.70
2017-09-30T03:52:37.826Z,15.70
2017-09-30T03:55:06.957Z,15.70
2017-09-30T03:57:35.971Z,15.70
2017-09-30T04:00:04.213Z,15.70
2017-09-30T04:02:33.561Z,15.70
2017-09-30T04:05:01.814Z,15.70
2017-09-30T04:07:30.068Z,15.70
2017-09-30T04:09:58.346Z,15.70
2017-09-30T04:12:27.358Z,15.60
2017-09-30T04:14:55.609Z,15.60
2017-09-30T04:17:24.649Z,15.60
2017-09-30T04:19:52.902Z,15.50
2017-09-30T04:22:21.149Z,15.50
2017-09-30T04:24:49.827Z,15.50
2017-09-30T04:27:18.070Z,15.50
2017-09-30T04:29:46.330Z,15.40
2017-09-30T04:32:14.606Z,15.40
2017-09-30T04:34:42.861Z,15.30
2017-09-30T04:37:11.113Z,15.30
2017-09-30T04:39:39.393Z,15.20
2017-09-30T04:42:07.646Z,15.20
2017-09-30T04:44:35.900Z,15.20
2017-09-30T04:47:04.697Z,15.20
2017-09-30T04:49:32.945Z,15.10
2017-09-30T04:52:01.197Z,15.10
2017-09-30T04:54:29.690Z,15.00
2017-09-30T04:56:57.941Z,15.00
2017-09-30T04:59:26.199Z,14.90
2017-09-30T05:01:54.466Z,14.90
2017-09-30T05:04:22.718Z,14.80
2017-09-30T05:06:50.970Z,14.80
2017-09-30T05:09:20.435Z,14.70
2017-09-30T05:11:48.689Z,14.70
2017-09-30T05:14:16.949Z,14.70
2017-09-30T05:16:45.233Z,14.70
2017-09-30T05:19:13.481Z,14.70
2017-09-30T05:21:41.738Z,14.70
2017-09-30T05:24:10.157Z,14.70
2017-09-30T05:26:38.414Z,14.80
2017-09-30T05:29:07.429Z,14.80
2017-09-30T05:31:35.865Z,14.80
2017-09-30T05:34:04.168Z,14.90
2017-09-30T05:36:32.421Z,14.90
2017-09-30T05:39:00.704Z,14.90
2017-09-30T05:41:28.951Z,14.90
2017-09-30T05:43:57.197Z,15.00
2017-09-30T05:46:25.473Z,15.00
2017-09-30T05:48:53.725Z,15.00
2017-09-30T05:51:21.980Z,15.00
2017-09-30T05:53:50.301Z,15.10
2017-09-30T05:56:18.865Z,15.10
2017-09-30T05:58:47.118Z,15.20
2017-09-30T06:01:15.394Z,15.20
2017-09-30T06:03:43.647Z,15.20
2017-09-30T06:06:11.897Z,15.20
2017-09-30T06:08:40.177Z,15.20
2017-09-30T06:11:08.425Z,15.20
2017-09-30T06:13:36.678Z,15.20
2017-09-30T06:16:06.022Z,15.20
2017-09-30T06:18:34.282Z,15.20
2017-09-30T06:21:02.539Z,15.20
2017-09-30T06:23:30.822Z,15.20
2017-09-30T06:25:59.833Z,15.30
2017-09-30T06:28:28.086Z,15.20
2017-09-30T06:30:57.129Z,15.40
2017-09-30T06:33:25.379Z,15.30
2017-09-30T06:35:53.638Z,15.40
2017-09-30T06:38:22.990Z,15.50
2017-09-30T06:40:51.246Z,15.50
2017-09-30T06:43:19.502Z,15.60
2017-09-30T06:45:47.773Z,15.60
2017-09-30T06:48:16.793Z,15.60
2017-09-30T06:50:45.090Z,15.60
2017-09-30T06:53:13.357Z,15.70
2017-09-30T06:55:41.614Z,15.70
2017-09-30T06:58:09.978Z,15.70
2017-09-30T07:00:39.318Z,15.90
2017-09-30T07:03:07.574Z,15.90
2017-09-30T07:05:35.826Z,16.00
2017-09-30T07:08:04.865Z,16.00
2017-09-30T07:10:33.126Z,16.00
2017-09-30T07:13:01.379Z,16.00
2017-09-30T07:15:30.414Z,16.10
2017-09-30T07:17:58.669Z,16.10
2017-09-30T07:20:26.972Z,16.10
2017-09-30T07:22:55.486Z,16.10
2017-09-30T07:25:32.406Z,16.10
2017-09-30T07:28:00.688Z,16.20
2017-09-30T07:30:28.937Z,16.20
2017-09-30T07:32:57.960Z,16.30
2017-09-30T07:35:26.239Z,16.20
2017-09-30T07:37:54.490Z,16.30
2017-09-30T07:40:23.516Z,16.30
2017-09-30T07:42:51.998Z,16.30
2017-09-30T07:45:20.246Z,16.30
2017-09-30T07:47:48.510Z,16.40
2017-09-30T07:50:16.782Z,16.40
2017-09-30T07:52:45.030Z,16.40
2017-09-30T07:55:13.284Z,16.40
2017-09-30T07:57:41.561Z,16.40
2017-09-30T08:00:10.216Z,16.40
2017-09-30T08:02:38.470Z,16.50
2017-09-30T08:05:07.609Z,16.50
2017-09-30T08:07:35.862Z,16.50
2017-09-30T08:10:04.114Z,16.50
2017-09-30T08:12:32.414Z,16.60
2017-09-30T08:15:00.651Z,16.70
2017-09-30T08:17:28.909Z,16.80
2017-09-30T08:19:57.186Z,16.80
2017-09-30T08:22:25.514Z,16.90
2017-09-30T08:24:53.752Z,16.90
2017-09-30T08:27:22.217Z,16.90
2017-09-30T08:29:50.478Z,16.90
2017-09-30T08:32:18.737Z,17.00
2017-09-30T08:34:47.014Z,17.10
2017-09-30T08:37:15.262Z,17.10
2017-09-30T08:39:43.520Z,17.20
2017-09-30T08:42:11.786Z,17.30
2017-09-30T08:44:40.038Z,17.40
2017-09-30T08:47:08.291Z,17.40
2017-09-30T08:49:37.014Z,17.50
2017-09-30T08:52:05.358Z,17.50
2017-09-30T08:54:33.616Z,17.60
2017-09-30T08:57:02.653Z,17.80
2017-09-30T08:59:30.901Z,17.70
2017-09-30T09:01:59.378Z,17.80
2017-09-30T09:04:28.419Z,18.10
2017-09-30T09:06:56.673Z,18.00
2017-09-30T09:09:24.925Z,18.20
2017-09-30T09:11:54.186Z,18.50
2017-09-30T09:14:22.473Z,18.50
2017-09-30T09:16:50.722Z,18.60
2017-09-30T09:19:18.999Z,18.70
2017-09-30T09:21:47.258Z,18.90
2017-09-30T09:24:15.509Z,19.00
2017-09-30T09:26:43.816Z,19.10
2017-09-30T09:29:12.070Z,19.30
2017-09-30T09:31:40.321Z,19.40
2017-09-30T09:34:08.982Z,19.60
2017-09-30T09:36:37.232Z,19.70
2017-09-30T09:39:05.642Z,19.80
2017-09-30T09:41:33.917Z,19.90
2017-09-30T09:44:02.174Z,20.10
2017-09-30T09:46:30.486Z,20.40
2017-09-30T09:49:00.616Z,20.50
2017-09-30T09:51:30.293Z,20.50
2017-09-30T09:54:03.171Z,20.50
2017-09-30T09:56:34.869Z,20.60
2017-09-30T09:59:05.167Z,20.80
2017-09-30T10:01:34.673Z,21.20
2017-09-30T10:04:05.477Z,22.50
2017-09-30T10:06:35.046Z,22.50
2017-09-30T10:09:05.443Z,23.00
2017-09-30T10:11:36.892Z,23.50
2017-09-30T10:14:06.955Z,24.10
2017-09-30T10:16:38.871Z,24.60
2017-09-30T10:19:11.173Z,24.90
2017-09-30T10:21:39.828Z,25.30
2017-09-30T10:24:08.478Z,25.50
2017-09-30T10:26:37.634Z,25.70
2017-09-30T10:29:07.041Z,25.80
2017-09-30T10:31:36.759Z,25.80
2017-09-30T10:34:06.153Z,25.90
2017-09-30T10:36:35.404Z,26.30
2017-09-30T10:39:05.465Z,26.70
2017-09-30T10:41:37.242Z,26.90
2017-09-30T10:44:06.278Z,27.50
2017-09-30T10:46:34.538Z,27.40
2017-09-30T10:49:04.094Z,27.70
2017-09-30T10:51:35.536Z,27.90
2017-09-30T10:54:03.765Z,27.50
2017-09-30T10:56:33.073Z,27.20
2017-09-30T10:59:01.475Z,27.20
2017-09-30T11:01:31.358Z,28.00
2017-09-30T11:04:00.830Z,28.00
2017-09-30T11:06:29.695Z,28.60
2017-09-30T11:09:03.734Z,29.10
2017-09-30T11:11:33.397Z,29.30
2017-09-30T11:14:02.606Z,29.50
2017-09-30T11:16:31.074Z,29.30
2017-09-30T11:19:00.321Z,29.10
2017-09-30T11:21:32.884Z,29.00
2017-09-30T11:24:01.959Z,29.30
2017-09-30T11:26:31.168Z,29.70
2017-09-30T11:29:00.210Z,30.00
2017-09-30T11:31:29.684Z,29.90
2017-09-30T11:33:58.066Z,29.70
2017-09-30T11:36:26.353Z,30.00
2017-09-30T11:38:54.704Z,30.60
2017-09-30T11:41:22.948Z,31.20
2017-09-30T11:43:51.231Z,31.60
2017-09-30T11:46:20.562Z,32.00
2017-09-30T11:48:48.817Z,32.00
2017-09-30T11:51:18.338Z,31.80
2017-09-30T11:53:46.589Z,31.60
2017-09-30T11:56:14.857Z,31.50
2017-09-30T11:58:43.139Z,31.30
2017-09-30T12:01:13.602Z,31.00
2017-09-30T12:03:41.877Z,30.50
2017-09-30T12:06:10.459Z,30.00
2017-09-30T12:08:38.813Z,29.60
2017-09-30T12:11:07.129Z,29.80
2017-09-30T12:13:35.609Z,30.60
2017-09-30T12:16:03.869Z,31.40
2017-09-30T12:18:32.138Z,32.00
2017-09-30T12:21:01.599Z,32.40
2017-09-30T12:23:30.618Z,33.20
2017-09-30T12:25:58.871Z,33.10
2017-09-30T12:28:27.917Z,33.60
2017-09-30T12:30:57.234Z,33.90
2017-09-30T12:33:25.481Z,34.00
2017-09-30T12:35:54.990Z,34.70
2017-09-30T12:38:25.445Z,34.70
2017-09-30T12:40:53.825Z,34.80
2017-09-30T12:43:23.141Z,35.10
2017-09-30T12:45:52.167Z,35.30
2017-09-30T12:48:20.416Z,35.20
2017-09-30T12:50:49.251Z,35.70
2017-09-30T12:53:19.701Z,35.90
2017-09-30T12:55:48.114Z,35.80
2017-09-30T12:58:17.221Z,35.50
2017-09-30T13:00:46.513Z,35.50
2017-09-30T13:03:17.356Z,36.00
2017-09-30T13:05:45.722Z,36.50
2017-09-30T13:08:17.609Z,36.70
2017-09-30T13:10:47.386Z,36.70
2017-09-30T13:13:15.639Z,36.60
2017-09-30T13:15:43.909Z,36.30
2017-09-30T13:18:12.492Z,35.80
2017-09-30T13:20:40.858Z,34.80
2017-09-30T13:23:09.111Z,33.70
2017-09-30T13:25:37.386Z,32.70
2017-09-30T13:28:05.642Z,31.90
2017-09-30T13:30:34.703Z,31.20
2017-09-30T13:33:03.040Z,31.20
2017-09-30T13:35:31.374Z,31.20
2017-09-30T13:37:59.866Z,31.90
2017-09-30T13:40:28.528Z,33.20
2017-09-30T13:42:56.765Z,34.40
2017-09-30T13:45:25.194Z,35.10
2017-09-30T13:47:53.614Z,35.30
2017-09-30T13:50:24.142Z,35.40
2017-09-30T13:52:52.389Z,35.30
2017-09-30T13:55:20.885Z,35.00
2017-09-30T13:57:49.898Z,35.10
2017-09-30T14:00:18.234Z,35.10
2017-09-30T14:02:46.571Z,34.70
2017-09-30T14:05:14.982Z,34.00
2017-09-30T14:07:43.268Z,34.00
2017-09-30T14:10:11.682Z,34.30
2017-09-30T14:12:40.098Z,34.80
2017-09-30T14:15:08.433Z,34.50
2017-09-30T14:17:36.962Z,34.50
2017-09-30T14:20:06.225Z,34.40
2017-09-30T14:22:36.418Z,34.50
2017-09-30T14:25:06.746Z,34.40
2017-09-30T14:27:35.009Z,35.00
2017-09-30T14:30:03.391Z,35.50
2017-09-30T14:32:32.745Z,35.80
2017-09-30T14:35:01.069Z,35.90
2017-09-30T14:37:29.459Z,36.10
2017-09-30T14:39:57.857Z,36.10
2017-09-30T14:42:28.042Z,34.40
2017-09-30T14:44:56.429Z,34.40
2017-09-30T14:47:24.845Z,33.20
2017-09-30T14:49:53.123Z,32.10
2017-09-30T14:52:21.362Z,31.30
2017-09-30T14:54:51.979Z,30.80
2017-09-30T14:57:20.218Z,30.40
2017-09-30T14:59:50.890Z,30.20
2017-09-30T15:02:19.190Z,29.90
2017-09-30T15:04:47.457Z,29.70
2017-09-30T15:07:15.845Z,29.50
2017-09-30T15:09:44.616Z,29.30
2017-09-30T15:12:14.154Z,29.20
2017-09-30T15:14:43.746Z,28.90
2017-09-30T15:17:12.158Z,28.80
2017-09-30T15:19:41.295Z,28.40
2017-09-30T15:22:09.585Z,28.40
2017-09-30T15:24:38.852Z,28.00
2017-09-30T15:27:07.094Z,28.00
2017-09-30T15:29:36.474Z,27.80
2017-09-30T15:32:05.028Z,27.60
2017-09-30T15:34:33.262Z,27.50
2017-09-30T15:37:02.624Z,27.10
2017-09-30T15:39:30.892Z,27.00
2017-09-30T15:41:59.205Z,26.80
2017-09-30T15:44:27.669Z,26.60
2017-09-30T15:46:56.071Z,26.50
2017-09-30T15:49:26.286Z,26.30
2017-09-30T15:51:55.308Z,26.20
2017-09-30T15:54:23.723Z,26.20
2017-09-30T15:56:51.961Z,26.10
2017-09-30T15:59:21.285Z,26.10
2017-09-30T16:01:51.217Z,26.10
2017-09-30T16:04:19.469Z,26.10
2017-09-30T16:06:48.917Z,26.10
2017-09-30T16:09:17.203Z,25.60
2017-09-30T16:11:45.456Z,25.50
2017-09-30T16:14:13.735Z,25.40
2017-09-30T16:16:42.263Z,25.50
2017-09-30T16:19:11.660Z,25.50
2017-09-30T16:21:40.110Z,25.50
2017-09-30T16:24:08.386Z,25.40
2017-09-30T16:26:36.721Z,25.30
2017-09-30T16:29:05.352Z,25.20
2017-09-30T16:31:35.077Z,25.10
2017-09-30T16:34:03.549Z,25.10
2017-09-30T16:36:31.790Z,25.10
2017-09-30T16:39:01.450Z,25.00
2017-09-30T16:41:29.819Z,24.60
2017-09-30T16:43:58.286Z,24.20
2017-09-30T16:46:26.578Z,23.80
2017-09-30T16:48:54.827Z,23.40
2017-09-30T16:51:23.072Z,23.20
2017-09-30T16:53:51.347Z,23.00
2017-09-30T16:56:20.797Z,22.90
2017-09-30T16:58:49.055Z,22.70
2017-09-30T17:01:17.384Z,22.60
2017-09-30T17:03:45.623Z,22.30
2017-09-30T17:06:13.892Z,22.00
2017-09-30T17:08:42.166Z,21.80
2017-09-30T17:11:10.414Z,21.60
2017-09-30T17:13:38.678Z,21.50
2017-09-30T17:16:07.287Z,21.50
2017-09-30T17:18:35.930Z,21.40
2017-09-30T17:21:04.933Z,21.20
2017-09-30T17:23:33.654Z,21.20
2017-09-30T17:26:01.951Z,21.10
2017-09-30T17:28:30.193Z,20.90
2017-09-30T17:30:58.461Z,20.80
2017-09-30T17:33:26.924Z,20.60
2017-09-30T17:35:55.184Z,20.60
2017-09-30T17:38:23.438Z,20.60
2017-09-30T17:40:51.719Z,20.50
2017-09-30T17:43:19.954Z,20.20
2017-09-30T17:45:48.509Z,20.20
2017-09-30T17:48:17.533Z,20.00
2017-09-30T17:50:45.801Z,19.90
2017-09-30T17:53:14.861Z,19.80
2017-09-30T17:55:43.098Z,19.80
2017-09-30T17:58:11.374Z,19.70
2017-09-30T18:00:39.643Z,19.60
2017-09-30T18:03:07.894Z,19.50
2017-09-30T18:05:36.129Z,19.50
2017-09-30T18:08:04.781Z,19.40
2017-09-30T18:10:33.078Z,19.40
2017-09-30T18:13:01.333Z,19.30
2017-09-30T18:15:29.597Z,19.30
2017-09-30T18:17:57.841Z,19.20
2017-09-30T18:20:26.333Z,19.20
2017-09-30T18:22:55.372Z,18.90
2017-09-30T18:25:23.621Z,18.90
2017-09-30T18:27:51.858Z,18.90
2017-09-30T18:30:20.502Z,18.90
2017-09-30T18:32:48.748Z,18.80
2017-09-30T18:35:16.981Z,18.60
2017-09-30T18:37:45.248Z,18.60
2017-09-30T18:40:13.494Z,18.70
2017-09-30T18:42:41.735Z,18.60
2017-09-30T18:45:10.770Z,18.40
2017-09-30T18:47:39.013Z,18.40
2017-09-30T18:50:07.258Z,18.40
2017-09-30T18:52:35.619Z,18.40
2017-09-30T18:55:03.861Z,18.30
2017-09-30T18:57:32.105Z,18.20
2017-09-30T19:00:00.376Z,18.20
2017-09-30T19:02:28.617Z,18.10
2017-09-30T19:04:56.916Z,18.10
2017-09-30T19:07:25.183Z,18.00
2017-09-30T19:09:53.425Z,17.90
2017-09-30T19:12:21.669Z,17.90
2017-09-30T19:14:50.854Z,18.00
2017-09-30T19:17:19.090Z,18.00
2017-09-30T19:19:47.346Z,17.90
2017-09-30T19:22:15.824Z,17.90
2017-09-30T19:24:44.066Z,17.90
2017-09-30T19:27:12.305Z,17.90
2017-09-30T19:29:40.569Z,17.80
2017-09-30T19:32:08.823Z,17.90
2017-09-30T19:34:37.081Z,17.90
2017-09-30T19:37:06.429Z,17.90
2017-09-30T19:39:34.670Z,17.90
2017-09-30T19:42:02.909Z,17.90
2017-09-30T19:44:31.169Z,17.90
2017-09-30T19:46:59.405Z,17.90
2017-09-30T19:49:27.673Z,17.80
2017-09-30T19:51:56.702Z,17.90
2017-09-30T19:54:24.941Z,17.80
2017-09-30T19:56:53.962Z,17.90
2017-09-30T19:59:22.782Z,17.90
2017-09-30T20:01:51.022Z,17.90
2017-09-30T20:04:19.327Z,17.80
2017-09-30T20:06:47.585Z,17.70
2017-09-30T20:09:15.832Z,17.70
2017-09-30T20:11:44.078Z,17.70
2017-09-30T20:14:12.350Z,17.70
2017-09-30T20:16:40.678Z,17.80
2017-09-30T20:19:08.917Z,17.80
2017-09-30T20:21:37.688Z,17.80
2017-09-30T20:24:06.048Z,17.70
2017-09-30T20:26:34.311Z,17.60
2017-09-30T20:29:02.570Z,17.50
2017-09-30T20:31:30.814Z,17.40
2017-09-30T20:33:59.051Z,17.30
2017-09-30T20:36:27.346Z,17.30
2017-09-30T20:38:55.577Z,17.20
2017-09-30T20:41:23.818Z,17.30
2017-09-30T20:43:53.097Z,17.30
2017-09-30T20:46:21.334Z,17.30
2017-09-30T20:48:49.577Z,17.30
2017-09-30T20:51:17.852Z,17.30
2017-09-30T20:53:46.115Z,17.30
2017-09-30T20:56:14.334Z,17.20
2017-09-30T20:58:42.598Z,17.10
2017-09-30T21:01:10.849Z,17.10
2017-09-30T21:03:39.104Z,17.10
2017-09-30T21:06:07.773Z,17.10
2017-09-30T21:08:36.023Z,17.00
2017-09-30T21:11:04.261Z,17.00
2017-09-30T21:13:32.534Z,17.00
2017-09-30T21:16:00.778Z,17.00
2017-09-30T21:18:29.021Z,16.90
2017-09-30T21:20:57.297Z,16.80
2017-09-30T21:23:25.537Z,16.80
2017-09-30T21:25:54.004Z,16.80
2017-09-30T21:28:22.357Z,16.80
2017-09-30T21:30:50.602Z,16.80
2017-09-30T21:33:19.634Z,16.70
2017-09-30T21:35:47.901Z,16.70
2017-09-30T21:38:16.146Z,16.70
2017-09-30T21:40:45.159Z,16.70
2017-09-30T21:43:13.426Z,16.70
2017-09-30T21:45:42.437Z,16.60
2017-09-30T21:48:10.681Z,16.60
2017-09-30T21:50:41.382Z,16.60
2017-09-30T21:53:09.622Z,16.50
2017-09-30T21:55:37.862Z,16.50
2017-09-30T21:58:06.937Z,16.50
2017-09-30T22:00:36.686Z,16.50
2017-09-30T22:03:05.692Z,16.50
2017-09-30T22:05:33.974Z,16.50
2017-09-30T22:08:02.214Z,16.50
2017-09-30T22:10:30.458Z,16.50
2017-09-30T22:12:58.921Z,16.60
2017-09-30T22:15:27.182Z,16.70
2017-09-30T22:17:55.429Z,16.70
2017-09-30T22:20:25.658Z,16.70
2017-09-30T22:22:54.005Z,16.70
2017-09-30T22:25:22.253Z,16.70
2017-09-30T22:27:51.731Z,16.60
2017-09-30T22:30:19.964Z,16.60
2017-09-30T22:32:48.211Z,16.60
2017-09-30T22:35:16.777Z,16.60
2017-09-30T22:37:45.029Z,16.50
2017-09-30T22:40:13.301Z,16.50
2017-09-30T22:42:42.337Z,16.40
2017-09-30T22:45:10.578Z,16.40
2017-09-30T22:47:39.665Z,16.40
2017-09-30T22:50:08.325Z,16.40
2017-09-30T22:52:36.577Z,16.30
2017-09-30T22:55:04.822Z,16.30
2017-09-30T22:57:33.433Z,16.30
2017-09-30T23:00:01.686Z,16.30
2017-09-30T23:02:29.931Z,16.30
2017-09-30T23:04:58.182Z,16.30
2017-09-30T23:07:27.218Z,16.20
2017-09-30T23:09:56.231Z,16.10
2017-09-30T23:12:24.489Z,16.10
2017-09-30T23:14:52.737Z,16.10
2017-09-30T23:17:20.977Z,16.20
2017-09-30T23:19:49.297Z,16.20
2017-09-30T23:22:17.537Z,16.10
2017-09-30T23:24:45.783Z,16.10
2017-09-30T23:27:14.141Z,16.10
2017-09-30T23:29:42.802Z,16.10
2017-09-30T23:32:11.026Z,16.10
2017-09-30T23:34:39.286Z,16.10
2017-09-30T23:37:08.299Z,16.00
2017-09-30T23:39:36.525Z,15.90
2017-09-30T23:42:04.930Z,15.90
2017-09-30T23:44:33.994Z,15.80
2017-09-30T23:47:02.217Z,15.80
2017-09-30T23:49:30.488Z,15.90
2017-09-30T23:51:58.728Z,15.80
2017-09-30T23:54:27.926Z,15.80
2017-09-30T23:56:56.202Z,15.80
2017-09-30T23:59:24.445Z,15.80
